sensor_id;sensor_type;location;lat;lon;timestamp;temperature;humidity
3232;DHT22;1628;48.884;9.210;2022-07-29T04:02:10;20.10;99.90
3232;DHT22;1628;48.884;9.210;2022-07-29T04:04:37;20.10;99.90
3232;DHT22;1628;48.884;9.210;2022-07-29T04:07:04;20.10;99.90
3232;DHT22;1628;48.884;9.210;2022-07-29T04:09:32;20.10;99.90
3232;DHT22;1628;48.884;9.210;2022-07-29T04:11:59;20.00;99.90
3232;DHT22;1628;48.884;9.210;2022-07-29T04:14:25;20.00;99.90
3232;DHT22;1628;48.884;9.210;2022-07-29T04:16:52;19.90;99.90
3232;DHT22;1628;48.884;9.210;2022-07-29T04:19:20;19.90;99.90
3232;DHT22;1628;48.884;9.210;2022-07-29T04:21:47;19.80;99.90
3232;DHT22;1628;48.884;9.210;2022-07-29T04:24:14;19.80;99.90
3232;DHT22;1628;48.884;9.210;2022-07-29T04:26:41;19.80;99.90
3232;DHT22;1628;48.884;9.210;2022-07-29T04:29:08;19.80;99.90
3232;DHT22;1628;48.884;9.210;2022-07-29T04:31:34;19.80;99.90
3232;DHT22;1628;48.884;9.210;2022-07-29T04:34:01;19.80;99.90
3232;DHT22;1628;48.884;9.210;2022-07-29T04:36:30;19.70;99.90
3232;DHT22;1628;48.884;9.210;2022-07-29T04:38:56;19.80;99.90
3232;DHT22;1628;48.884;9.210;2022-07-29T04:41:23;19.70;99.90
3232;DHT22;1628;48.884;9.210;2022-07-29T04:43:50;19.70;99.90
3232;DHT22;1628;48.884;9.210;2022-07-29T04:46:17;19.70;99.90
3232;DHT22;1628;48.884;9.210;2022-07-29T04:48:45;19.70;99.90
3232;DHT22;1628;48.884;9.210;2022-07-29T04:51:12;19.90;99.90
3232;DHT22;1628;48.884;9.210;2022-07-29T04:53:40;20.10;99.90
3232;DHT22;1628;48.884;9.210;2022-07-29T04:56:07;20.30;99.90
3232;DHT22;1628;48.884;9.210;2022-07-29T04:58:34;20.40;99.90
3232;DHT22;1628;48.884;9.210;2022-07-29T05:01:01;20.60;99.90
3232;DHT22;1628;48.884;9.210;2022-07-29T05:03:28;20.80;99.90
3232;DHT22;1628;48.884;9.210;2022-07-29T05:05:54;20.90;99.90
3232;DHT22;1628;48.884;9.210;2022-07-29T05:08:21;21.00;99.90
3232;DHT22;1628;48.884;9.210;2022-07-29T05:10:49;21.10;99.90
3232;DHT22;1628;48.884;9.210;2022-07-29T05:13:16;21.10;99.90
3232;DHT22;1628;48.884;9.210;2022-07-29T05:15:43;21.10;99.90
3232;DHT22;1628;48.884;9.210;2022-07-29T05:18:09;21.00;99.90
3232;DHT22;1628;48.884;9.210;2022-07-29T05:20:36;21.00;99.90
3232;DHT22;1628;48.884;9.210;2022-07-29T05:23:03;20.90;99.90
3232;DHT22;1628;48.884;9.210;2022-07-29T05:25:30;20.90;99.90
3232;DHT22;1628;48.884;9.210;2022-07-29T05:27:58;20.90;99.90
3232;DHT22;1628;48.884;9.210;2022-07-29T05:30:25;20.90;99.90
3232;DHT22;1628;48.884;9.210;2022-07-29T05:32:51;21.00;99.90
3232;DHT22;1628;48.884;9.210;2022-07-29T05:35:18;21.20;99.90
3232;DHT22;1628;48.884;9.210;2022-07-29T05:37:45;21.40;99.90
3232;DHT22;1628;48.884;9.210;2022-07-29T05:40:11;21.60;99.90
3232;DHT22;1628;48.884;9.210;2022-07-29T05:42:38;21.80;99.90
3232;DHT22;1628;48.884;9.210;2022-07-29T05:45:07;22.00;99.90
3232;DHT22;1628;48.884;9.210;2022-07-29T05:47:34;22.20;99.90
3232;DHT22;1628;48.884;9.210;2022-07-29T05:50:01;22.40;99.90
3232;DHT22;1628;48.884;9.210;2022-07-29T05:52:28;22.40;99.90
3232;DHT22;1628;48.884;9.210;2022-07-29T05:54:54;22.30;99.90
3232;DHT22;1628;48.884;9.210;2022-07-29T05:57:23;22.30;99.90
3232;DHT22;1628;48.884;9.210;2022-07-29T05:59:50;22.20;99.90
3232;DHT22;1628;48.884;9.210;2022-07-29T06:02:19;22.20;99.90
3232;DHT22;1628;48.884;9.210;2022-07-29T06:04:45;22.20;99.90
3232;DHT22;1628;48.884;9.210;2022-07-29T06:07:12;22.20;99.90
3232;DHT22;1628;48.884;9.210;2022-07-29T06:09:39;22.30;99.90
3232;DHT22;1628;48.884;9.210;2022-07-29T06:12:06;22.30;99.90
3232;DHT22;1628;48.884;9.210;2022-07-29T06:14:33;22.50;99.90
3232;DHT22;1628;48.884;9.210;2022-07-29T06:17:00;22.50;99.90
3232;DHT22;1628;48.884;9.210;2022-07-29T06:19:28;22.60;99.90
3232;DHT22;1628;48.884;9.210;2022-07-29T06:21:55;22.60;99.90
3232;DHT22;1628;48.884;9.210;2022-07-29T06:24:22;22.60;99.90
3232;DHT22;1628;48.884;9.210;2022-07-29T06:26:48;22.70;99.90
3232;DHT22;1628;48.884;9.210;2022-07-29T06:29:15;22.90;99.90
3232;DHT22;1628;48.884;9.210;2022-07-29T06:31:42;23.20;99.90
3232;DHT22;1628;48.884;9.210;2022-07-29T06:34:09;23.50;99.90
3232;DHT22;1628;48.884;9.210;2022-07-29T06:36:37;23.90;99.90
3232;DHT22;1628;48.884;9.210;2022-07-29T06:39:05;24.00;99.90
3232;DHT22;1628;48.884;9.210;2022-07-29T06:41:32;24.30;99.90
3232;DHT22;1628;48.884;9.210;2022-07-29T06:43:59;24.70;99.90
3232;DHT22;1628;48.884;9.210;2022-07-29T06:46:26;25.10;99.90
3232;DHT22;1628;48.884;9.210;2022-07-29T06:48:53;25.20;99.90
3232;DHT22;1628;48.884;9.210;2022-07-29T06:51:20;25.30;99.90
3232;DHT22;1628;48.884;9.210;2022-07-29T06:53:48;25.30;99.90
3232;DHT22;1628;48.884;9.210;2022-07-29T06:56:15;25.30;99.90
3232;DHT22;1628;48.884;9.210;2022-07-29T06:58:42;25.30;99.90
3232;DHT22;1628;48.884;9.210;2022-07-29T07:01:08;25.40;99.90
3232;DHT22;1628;48.884;9.210;2022-07-29T07:03:35;25.50;99.90
3232;DHT22;1628;48.884;9.210;2022-07-29T07:06:02;25.70;99.90
3232;DHT22;1628;48.884;9.210;2022-07-29T07:08:29;26.20;99.90
3232;DHT22;1628;48.884;9.210;2022-07-29T07:10:57;26.80;99.90
3232;DHT22;1628;48.884;9.210;2022-07-29T07:13:23;27.40;99.90
3232;DHT22;1628;48.884;9.210;2022-07-29T07:15:50;27.90;99.90
3232;DHT22;1628;48.884;9.210;2022-07-29T07:18:18;28.50;99.90
3232;DHT22;1628;48.884;9.210;2022-07-29T07:20:45;29.00;99.90
3232;DHT22;1628;48.884;9.210;2022-07-29T07:23:11;29.20;99.90
3232;DHT22;1628;48.884;9.210;2022-07-29T07:25:38;29.20;99.90
3232;DHT22;1628;48.884;9.210;2022-07-29T07:28:06;29.20;99.90
3232;DHT22;1628;48.884;9.210;2022-07-29T07:30:33;29.40;99.90
3232;DHT22;1628;48.884;9.210;2022-07-29T07:33:00;29.90;99.90
3232;DHT22;1628;48.884;9.210;2022-07-29T07:35:27;30.00;99.80
3232;DHT22;1628;48.884;9.210;2022-07-29T07:37:54;30.20;99.40
3232;DHT22;1628;48.884;9.210;2022-07-29T07:40:21;30.50;98.40
3232;DHT22;1628;48.884;9.210;2022-07-29T07:42:47;30.50;97.80
3232;DHT22;1628;48.884;9.210;2022-07-29T07:45:15;30.50;98.10
3232;DHT22;1628;48.884;9.210;2022-07-29T07:47:43;30.80;96.50
3232;DHT22;1628;48.884;9.210;2022-07-29T07:50:11;31.20;95.30
3232;DHT22;1628;48.884;9.210;2022-07-29T07:52:46;31.50;94.00
3232;DHT22;1628;48.884;9.210;2022-07-29T07:55:13;31.70;93.40
3232;DHT22;1628;48.884;9.210;2022-07-29T07:57:39;31.90;92.20
3232;DHT22;1628;48.884;9.210;2022-07-29T08:00:07;32.10;92.30
3232;DHT22;1628;48.884;9.210;2022-07-29T08:02:35;32.40;91.10
3232;DHT22;1628;48.884;9.210;2022-07-29T08:05:03;32.40;90.30
3232;DHT22;1628;48.884;9.210;2022-07-29T08:07:29;32.60;88.10
3232;DHT22;1628;48.884;9.210;2022-07-29T08:09:56;32.60;87.70
3232;DHT22;1628;48.884;9.210;2022-07-29T08:12:23;32.30;87.70
3232;DHT22;1628;48.884;9.210;2022-07-29T08:14:49;32.30;88.10
3232;DHT22;1628;48.884;9.210;2022-07-29T08:17:16;32.40;86.90
3232;DHT22;1628;48.884;9.210;2022-07-29T08:19:44;32.60;84.90
3232;DHT22;1628;48.884;9.210;2022-07-29T08:22:13;32.50;84.00
3232;DHT22;1628;48.884;9.210;2022-07-29T08:24:40;32.20;85.70
3232;DHT22;1628;48.884;9.210;2022-07-29T08:27:12;32.00;87.40
3232;DHT22;1628;48.884;9.210;2022-07-29T08:29:39;32.30;85.10
3232;DHT22;1628;48.884;9.210;2022-07-29T08:32:06;32.70;84.80
3232;DHT22;1628;48.884;9.210;2022-07-29T08:34:33;32.90;80.10
3232;DHT22;1628;48.884;9.210;2022-07-29T08:37:01;33.10;80.90
3232;DHT22;1628;48.884;9.210;2022-07-29T08:39:27;33.60;79.40
3232;DHT22;1628;48.884;9.210;2022-07-29T08:41:54;33.80;78.20
3232;DHT22;1628;48.884;9.210;2022-07-29T08:44:21;34.00;76.10
3232;DHT22;1628;48.884;9.210;2022-07-29T08:46:48;34.40;74.20
3232;DHT22;1628;48.884;9.210;2022-07-29T08:49:16;34.40;74.40
3232;DHT22;1628;48.884;9.210;2022-07-29T08:51:43;34.80;72.30
3232;DHT22;1628;48.884;9.210;2022-07-29T08:54:11;35.10;69.70
3232;DHT22;1628;48.884;9.210;2022-07-29T08:56:43;35.40;64.40
3232;DHT22;1628;48.884;9.210;2022-07-29T08:59:09;35.60;61.20
3232;DHT22;1628;48.884;9.210;2022-07-29T09:01:37;35.90;61.60
3232;DHT22;1628;48.884;9.210;2022-07-29T09:04:09;36.00;61.50
3232;DHT22;1628;48.884;9.210;2022-07-29T09:06:39;36.30;60.50
3232;DHT22;1628;48.884;9.210;2022-07-29T09:09:07;36.20;59.60
3232;DHT22;1628;48.884;9.210;2022-07-29T09:11:35;36.40;60.60
3232;DHT22;1628;48.884;9.210;2022-07-29T09:14:02;36.50;58.00
3232;DHT22;1628;48.884;9.210;2022-07-29T09:16:47;36.30;58.40
3232;DHT22;1628;48.884;9.210;2022-07-29T09:19:24;36.10;58.10
3232;DHT22;1628;48.884;9.210;2022-07-29T09:21:51;35.70;58.00
3232;DHT22;1628;48.884;9.210;2022-07-29T09:24:25;35.50;60.00
3232;DHT22;1628;48.884;9.210;2022-07-29T09:26:54;36.00;58.50
3232;DHT22;1628;48.884;9.210;2022-07-29T09:29:23;36.20;58.00
3232;DHT22;1628;48.884;9.210;2022-07-29T09:31:51;35.90;57.50
3232;DHT22;1628;48.884;9.210;2022-07-29T09:34:22;36.30;56.30
3232;DHT22;1628;48.884;9.210;2022-07-29T09:36:50;36.70;55.90
3232;DHT22;1628;48.884;9.210;2022-07-29T09:39:28;36.90;56.00
3232;DHT22;1628;48.884;9.210;2022-07-29T09:41:58;37.10;55.30
3232;DHT22;1628;48.884;9.210;2022-07-29T09:44:25;37.30;55.60
3232;DHT22;1628;48.884;9.210;2022-07-29T09:46:54;37.90;55.10
3232;DHT22;1628;48.884;9.210;2022-07-29T09:49:22;38.40;53.90
3232;DHT22;1628;48.884;9.210;2022-07-29T09:51:59;38.80;51.10
3232;DHT22;1628;48.884;9.210;2022-07-29T09:54:27;38.50;50.60
3232;DHT22;1628;48.884;9.210;2022-07-29T09:56:55;38.10;51.00
3232;DHT22;1628;48.884;9.210;2022-07-29T09:59:22;37.60;52.30
3232;DHT22;1628;48.884;9.210;2022-07-29T10:01:51;37.50;52.70
3232;DHT22;1628;48.884;9.210;2022-07-29T10:04:19;37.30;53.00
3232;DHT22;1628;48.884;9.210;2022-07-29T10:06:56;37.30;53.20
3232;DHT22;1628;48.884;9.210;2022-07-29T10:09:23;37.40;51.70
3232;DHT22;1628;48.884;9.210;2022-07-29T10:12:05;37.50;51.40
3232;DHT22;1628;48.884;9.210;2022-07-29T10:14:32;37.60;50.40
3232;DHT22;1628;48.884;9.210;2022-07-29T10:17:00;37.60;51.10
3232;DHT22;1628;48.884;9.210;2022-07-29T10:19:28;37.20;50.20
3232;DHT22;1628;48.884;9.210;2022-07-29T10:21:56;36.50;51.40
3232;DHT22;1628;48.884;9.210;2022-07-29T10:24:24;35.60;52.70
3232;DHT22;1628;48.884;9.210;2022-07-29T10:26:53;34.50;54.90
3232;DHT22;1628;48.884;9.210;2022-07-29T10:29:22;33.60;56.30
3232;DHT22;1628;48.884;9.210;2022-07-29T10:31:57;33.10;57.60
3232;DHT22;1628;48.884;9.210;2022-07-29T10:34:36;32.60;58.60
3232;DHT22;1628;48.884;9.210;2022-07-29T10:37:19;32.30;58.80
3232;DHT22;1628;48.884;9.210;2022-07-29T10:39:55;31.80;60.00
3232;DHT22;1628;48.884;9.210;2022-07-29T10:42:28;31.30;61.10
3232;DHT22;1628;48.884;9.210;2022-07-29T10:44:57;31.00;62.60
3232;DHT22;1628;48.884;9.210;2022-07-29T10:47:26;30.50;63.10
3232;DHT22;1628;48.884;9.210;2022-07-29T10:49:57;30.20;64.30
3232;DHT22;1628;48.884;9.210;2022-07-29T10:52:24;29.80;65.10
3232;DHT22;1628;48.884;9.210;2022-07-29T10:54:53;29.40;66.70
3232;DHT22;1628;48.884;9.210;2022-07-29T10:57:25;29.20;68.00
3232;DHT22;1628;48.884;9.210;2022-07-29T11:00:28;29.10;68.80
3232;DHT22;1628;48.884;9.210;2022-07-29T11:02:55;28.90;69.10
3232;DHT22;1628;48.884;9.210;2022-07-29T11:05:23;28.80;69.40
3232;DHT22;1628;48.884;9.210;2022-07-29T11:08:18;28.70;69.20
3232;DHT22;1628;48.884;9.210;2022-07-29T11:10:47;28.60;71.30
3232;DHT22;1628;48.884;9.210;2022-07-29T11:13:45;28.50;71.30
3232;DHT22;1628;48.884;9.210;2022-07-29T11:16:13;28.40;70.40
3232;DHT22;1628;48.884;9.210;2022-07-29T11:21:42;28.20;71.80
3232;DHT22;1628;48.884;9.210;2022-07-29T11:24:12;28.20;71.20
3232;DHT22;1628;48.884;9.210;2022-07-29T11:26:39;28.10;70.30
3232;DHT22;1628;48.884;9.210;2022-07-29T11:29:16;28.00;71.40
3232;DHT22;1628;48.884;9.210;2022-07-29T11:31:48;27.90;71.30
3232;DHT22;1628;48.884;9.210;2022-07-29T11:34:25;27.70;71.80
3232;DHT22;1628;48.884;9.210;2022-07-29T11:37:21;27.60;73.50
3232;DHT22;1628;48.884;9.210;2022-07-29T11:40:15;27.50;74.50
3232;DHT22;1628;48.884;9.210;2022-07-29T11:42:46;27.60;75.40
3232;DHT22;1628;48.884;9.210;2022-07-29T11:45:21;27.80;76.10
3232;DHT22;1628;48.884;9.210;2022-07-29T11:47:55;27.90;76.60
3232;DHT22;1628;48.884;9.210;2022-07-29T11:50:30;28.00;80.00
3232;DHT22;1628;48.884;9.210;2022-07-29T11:52:58;27.90;83.40
3232;DHT22;1628;48.884;9.210;2022-07-29T11:55:25;27.80;84.10
3232;DHT22;1628;48.884;9.210;2022-07-29T11:57:53;27.70;86.30
3232;DHT22;1628;48.884;9.210;2022-07-29T12:00:23;27.40;90.30
3232;DHT22;1628;48.884;9.210;2022-07-29T12:02:50;27.10;92.80
3232;DHT22;1628;48.884;9.210;2022-07-29T12:05:19;27.00;93.90
3232;DHT22;1628;48.884;9.210;2022-07-29T12:07:46;26.80;94.70
3232;DHT22;1628;48.884;9.210;2022-07-29T12:10:13;26.80;95.50
3232;DHT22;1628;48.884;9.210;2022-07-29T12:12:40;26.70;95.30
3232;DHT22;1628;48.884;9.210;2022-07-29T12:15:12;26.60;95.30
3232;DHT22;1628;48.884;9.210;2022-07-29T12:17:39;26.50;95.60
3232;DHT22;1628;48.884;9.210;2022-07-29T12:20:06;26.50;95.90
3232;DHT22;1628;48.884;9.210;2022-07-29T12:22:36;26.40;95.80
3232;DHT22;1628;48.884;9.210;2022-07-29T12:25:06;26.60;95.60
3232;DHT22;1628;48.884;9.210;2022-07-29T12:27:34;26.70;94.50
3232;DHT22;1628;48.884;9.210;2022-07-29T12:30:03;26.80;94.20
3232;DHT22;1628;48.884;9.210;2022-07-29T12:32:32;26.80;94.50
3232;DHT22;1628;48.884;9.210;2022-07-29T12:34:59;26.70;93.70
3232;DHT22;1628;48.884;9.210;2022-07-29T12:37:26;26.40;91.90
3232;DHT22;1628;48.884;9.210;2022-07-29T12:39:54;26.10;90.60
3232;DHT22;1628;48.884;9.210;2022-07-29T12:42:21;25.90;90.10
3232;DHT22;1628;48.884;9.210;2022-07-29T12:44:49;25.90;90.60
3232;DHT22;1628;48.884;9.210;2022-07-29T12:47:17;25.90;87.00
3232;DHT22;1628;48.884;9.210;2022-07-29T12:49:44;25.80;87.30
3232;DHT22;1628;48.884;9.210;2022-07-29T12:52:25;25.90;86.40
3232;DHT22;1628;48.884;9.210;2022-07-29T12:54:52;26.10;87.40
3232;DHT22;1628;48.884;9.210;2022-07-29T12:57:20;26.20;86.60
3232;DHT22;1628;48.884;9.210;2022-07-29T12:59:59;26.20;85.60
3232;DHT22;1628;48.884;9.210;2022-07-29T13:02:26;26.20;84.30
3232;DHT22;1628;48.884;9.210;2022-07-29T13:04:57;26.10;84.80
3232;DHT22;1628;48.884;9.210;2022-07-29T13:07:26;26.10;85.70
3232;DHT22;1628;48.884;9.210;2022-07-29T13:09:58;26.00;87.20
3232;DHT22;1628;48.884;9.210;2022-07-29T13:12:37;26.00;88.50
3232;DHT22;1628;48.884;9.210;2022-07-29T13:15:13;25.80;90.30
3232;DHT22;1628;48.884;9.210;2022-07-29T13:17:40;25.70;91.20
3232;DHT22;1628;48.884;9.210;2022-07-29T13:20:09;25.60;91.90
3232;DHT22;1628;48.884;9.210;2022-07-29T13:22:38;25.40;92.70
3232;DHT22;1628;48.884;9.210;2022-07-29T13:25:06;25.20;93.70
3232;DHT22;1628;48.884;9.210;2022-07-29T13:27:34;25.20;94.70
3232;DHT22;1628;48.884;9.210;2022-07-29T13:30:05;25.10;95.30
3232;DHT22;1628;48.884;9.210;2022-07-29T13:32:32;25.10;96.00
3232;DHT22;1628;48.884;9.210;2022-07-29T13:35:01;25.10;96.20
3232;DHT22;1628;48.884;9.210;2022-07-29T13:37:28;25.10;96.60
3232;DHT22;1628;48.884;9.210;2022-07-29T13:39:55;25.10;97.20
3232;DHT22;1628;48.884;9.210;2022-07-29T13:42:22;25.00;97.20
3232;DHT22;1628;48.884;9.210;2022-07-29T13:44:48;25.00;97.40
3232;DHT22;1628;48.884;9.210;2022-07-29T13:47:18;25.00;98.30
3232;DHT22;1628;48.884;9.210;2022-07-29T13:49:45;25.00;99.20
3232;DHT22;1628;48.884;9.210;2022-07-29T13:52:11;25.00;99.90
3232;DHT22;1628;48.884;9.210;2022-07-29T13:54:38;25.00;99.90
3232;DHT22;1628;48.884;9.210;2022-07-29T13:57:05;25.20;99.90
3232;DHT22;1628;48.884;9.210;2022-07-29T13:59:32;25.50;99.90
3232;DHT22;1628;48.884;9.210;2022-07-29T14:01:59;25.80;99.90
3232;DHT22;1628;48.884;9.210;2022-07-29T14:04:27;26.00;99.70
3232;DHT22;1628;48.884;9.210;2022-07-29T14:06:54;26.00;99.50
3232;DHT22;1628;48.884;9.210;2022-07-29T14:09:20;26.20;99.70
3232;DHT22;1628;48.884;9.210;2022-07-29T14:11:47;26.40;98.90
3232;DHT22;1628;48.884;9.210;2022-07-29T14:14:15;26.50;98.90
3232;DHT22;1628;48.884;9.210;2022-07-29T14:16:42;26.70;98.50
3232;DHT22;1628;48.884;9.210;2022-07-29T14:19:09;26.70;98.90
3232;DHT22;1628;48.884;9.210;2022-07-29T14:21:38;26.90;98.70
3232;DHT22;1628;48.884;9.210;2022-07-29T14:24:05;27.10;98.40
3232;DHT22;1628;48.884;9.210;2022-07-29T14:26:32;27.10;96.60
3232;DHT22;1628;48.884;9.210;2022-07-29T14:28:59;27.20;95.90
3232;DHT22;1628;48.884;9.210;2022-07-29T14:31:25;27.10;95.50
3232;DHT22;1628;48.884;9.210;2022-07-29T14:33:52;27.00;95.30
3232;DHT22;1628;48.884;9.210;2022-07-29T14:36:19;27.00;95.40
3232;DHT22;1628;48.884;9.210;2022-07-29T14:38:47;26.90;96.10
3232;DHT22;1628;48.884;9.210;2022-07-29T14:41:14;26.90;96.80
3232;DHT22;1628;48.884;9.210;2022-07-29T14:43:40;27.00;95.50
3232;DHT22;1628;48.884;9.210;2022-07-29T14:46:07;27.10;96.30
3232;DHT22;1628;48.884;9.210;2022-07-29T14:48:34;27.20;97.50
3232;DHT22;1628;48.884;9.210;2022-07-29T14:51:01;27.20;96.30
3232;DHT22;1628;48.884;9.210;2022-07-29T14:53:27;27.20;95.80
3232;DHT22;1628;48.884;9.210;2022-07-29T14:55:55;27.30;96.30
3232;DHT22;1628;48.884;9.210;2022-07-29T14:58:22;27.40;97.00
3232;DHT22;1628;48.884;9.210;2022-07-29T15:00:49;27.50;97.00
3232;DHT22;1628;48.884;9.210;2022-07-29T15:03:15;27.60;96.80
3232;DHT22;1628;48.884;9.210;2022-07-29T15:05:42;27.70;96.50
3232;DHT22;1628;48.884;9.210;2022-07-29T15:08:09;27.70;95.90
3232;DHT22;1628;48.884;9.210;2022-07-29T15:10:36;27.70;95.70
3232;DHT22;1628;48.884;9.210;2022-07-29T15:13:04;27.60;95.50
3232;DHT22;1628;48.884;9.210;2022-07-29T15:15:31;27.60;95.50
3232;DHT22;1628;48.884;9.210;2022-07-29T15:17:57;27.60;95.90
3232;DHT22;1628;48.884;9.210;2022-07-29T15:20:24;27.40;97.00
3232;DHT22;1628;48.884;9.210;2022-07-29T15:22:52;27.30;97.70
3232;DHT22;1628;48.884;9.210;2022-07-29T15:25:20;27.10;98.60
3232;DHT22;1628;48.884;9.210;2022-07-29T15:27:47;26.90;99.10
3232;DHT22;1628;48.884;9.210;2022-07-29T15:30:15;26.90;99.90
3232;DHT22;1628;48.884;9.210;2022-07-29T15:32:42;26.90;99.90
3232;DHT22;1628;48.884;9.210;2022-07-29T15:35:09;27.00;99.90
3232;DHT22;1628;48.884;9.210;2022-07-29T15:37:36;27.00;99.90
3232;DHT22;1628;48.884;9.210;2022-07-29T15:40:04;27.00;99.90
3232;DHT22;1628;48.884;9.210;2022-07-29T15:42:31;27.10;99.90
3232;DHT22;1628;48.884;9.210;2022-07-29T15:44:59;27.00;99.90
3232;DHT22;1628;48.884;9.210;2022-07-29T15:47:29;27.10;99.90
3232;DHT22;1628;48.884;9.210;2022-07-29T15:49:56;27.10;99.90
3232;DHT22;1628;48.884;9.210;2022-07-29T15:52:22;27.00;99.90
3232;DHT22;1628;48.884;9.210;2022-07-29T15:54:49;27.10;99.90
3232;DHT22;1628;48.884;9.210;2022-07-29T15:57:16;27.10;99.90
3232;DHT22;1628;48.884;9.210;2022-07-29T15:59:43;27.10;89.00
3232;DHT22;1628;48.884;9.210;2022-07-29T16:02:09;27.20;89.60
3232;DHT22;1628;48.884;9.210;2022-07-29T16:04:37;27.30;82.30
3232;DHT22;1628;48.884;9.210;2022-07-29T16:07:04;27.40;77.20
3232;DHT22;1628;48.884;9.210;2022-07-29T16:09:31;27.50;76.10
3232;DHT22;1628;48.884;9.210;2022-07-29T16:11:58;27.70;76.80
3232;DHT22;1628;48.884;9.210;2022-07-29T16:14:24;27.70;75.70
3232;DHT22;1628;48.884;9.210;2022-07-29T16:16:52;27.90;74.70
3232;DHT22;1628;48.884;9.210;2022-07-29T16:19:19;28.00;73.50
3232;DHT22;1628;48.884;9.210;2022-07-29T16:21:47;28.10;70.60
3232;DHT22;1628;48.884;9.210;2022-07-29T16:24:14;28.20;71.50
3232;DHT22;1628;48.884;9.210;2022-07-29T16:26:40;28.20;71.20
3232;DHT22;1628;48.884;9.210;2022-07-29T16:29:07;28.30;69.90
3232;DHT22;1628;48.884;9.210;2022-07-29T16:31:34;28.40;72.70
3232;DHT22;1628;48.884;9.210;2022-07-29T16:34:01;28.40;69.00
3232;DHT22;1628;48.884;9.210;2022-07-29T16:36:27;28.40;68.20
3232;DHT22;1628;48.884;9.210;2022-07-29T16:38:56;28.40;69.60
3232;DHT22;1628;48.884;9.210;2022-07-29T16:41:22;28.40;69.10
3232;DHT22;1628;48.884;9.210;2022-07-29T16:43:49;28.40;69.00
3232;DHT22;1628;48.884;9.210;2022-07-29T16:46:16;28.40;73.30
3232;DHT22;1628;48.884;9.210;2022-07-29T16:48:42;28.30;67.70
3232;DHT22;1628;48.884;9.210;2022-07-29T16:51:09;28.40;67.30
3232;DHT22;1628;48.884;9.210;2022-07-29T16:53:36;28.40;68.20
3232;DHT22;1628;48.884;9.210;2022-07-29T16:56:04;28.40;67.10
3232;DHT22;1628;48.884;9.210;2022-07-29T16:58:31;28.30;65.20
3232;DHT22;1628;48.884;9.210;2022-07-29T17:00:58;28.30;65.90
3232;DHT22;1628;48.884;9.210;2022-07-29T17:03:25;28.30;65.90
3232;DHT22;1628;48.884;9.210;2022-07-29T17:05:51;28.20;65.40
3232;DHT22;1628;48.884;9.210;2022-07-29T17:08:18;28.30;64.80
3232;DHT22;1628;48.884;9.210;2022-07-29T17:10:45;28.20;64.80
3232;DHT22;1628;48.884;9.210;2022-07-29T17:13:13;28.20;64.90
3232;DHT22;1628;48.884;9.210;2022-07-29T17:15:40;28.20;64.80
3232;DHT22;1628;48.884;9.210;2022-07-29T17:18:08;28.10;63.10
3232;DHT22;1628;48.884;9.210;2022-07-29T17:20:35;28.10;84.30
3232;DHT22;1628;48.884;9.210;2022-07-29T17:23:02;27.90;93.10
3232;DHT22;1628;48.884;9.210;2022-07-29T17:25:29;27.80;95.30
3232;DHT22;1628;48.884;9.210;2022-07-29T17:27:55;27.80;95.70
3232;DHT22;1628;48.884;9.210;2022-07-29T17:30:23;27.70;95.40
3232;DHT22;1628;48.884;9.210;2022-07-29T17:32:50;27.60;95.60
3232;DHT22;1628;48.884;9.210;2022-07-29T17:35:18;27.50;98.90
3232;DHT22;1628;48.884;9.210;2022-07-29T17:38:02;27.40;99.90
3232;DHT22;1628;48.884;9.210;2022-07-29T17:40:29;27.30;99.90
3232;DHT22;1628;48.884;9.210;2022-07-29T17:42:55;27.20;99.90
3232;DHT22;1628;48.884;9.210;2022-07-29T17:45:23;27.10;99.90
3232;DHT22;1628;48.884;9.210;2022-07-29T17:47:50;27.00;99.90
3232;DHT22;1628;48.884;9.210;2022-07-29T17:50:17;26.80;99.90
3232;DHT22;1628;48.884;9.210;2022-07-29T17:52:43;26.70;99.90
3232;DHT22;1628;48.884;9.210;2022-07-29T17:55:10;26.70;99.90
3232;DHT22;1628;48.884;9.210;2022-07-29T17:57:37;26.60;99.90
3232;DHT22;1628;48.884;9.210;2022-07-29T18:00:05;26.50;99.90
3232;DHT22;1628;48.884;9.210;2022-07-29T18:02:34;26.50;99.90
3232;DHT22;1628;48.884;9.210;2022-07-29T18:05:02;26.50;99.90
3232;DHT22;1628;48.884;9.210;2022-07-29T18:07:28;26.50;99.90
3232;DHT22;1628;48.884;9.210;2022-07-29T18:09:55;26.50;99.90
3232;DHT22;1628;48.884;9.210;2022-07-29T18:12:22;26.50;99.80
3232;DHT22;1628;48.884;9.210;2022-07-29T18:14:48;26.50;99.90
3232;DHT22;1628;48.884;9.210;2022-07-29T18:17:15;26.40;99.90
3232;DHT22;1628;48.884;9.210;2022-07-29T18:19:44;26.30;99.90
3232;DHT22;1628;48.884;9.210;2022-07-29T18:22:10;26.30;99.90
3232;DHT22;1628;48.884;9.210;2022-07-29T18:24:38;26.00;99.90
3232;DHT22;1628;48.884;9.210;2022-07-29T18:27:05;25.90;99.90
3232;DHT22;1628;48.884;9.210;2022-07-29T18:29:32;25.80;99.90
3232;DHT22;1628;48.884;9.210;2022-07-29T18:31:59;25.80;99.90
3232;DHT22;1628;48.884;9.210;2022-07-29T18:34:26;25.70;99.90
3232;DHT22;1628;48.884;9.210;2022-07-29T18:36:54;25.60;99.90
3232;DHT22;1628;48.884;9.210;2022-07-29T18:39:21;25.60;99.90
3232;DHT22;1628;48.884;9.210;2022-07-29T18:41:48;25.60;99.90
3232;DHT22;1628;48.884;9.210;2022-07-29T18:44:15;25.50;99.90
3232;DHT22;1628;48.884;9.210;2022-07-29T18:46:42;25.50;99.90
3232;DHT22;1628;48.884;9.210;2022-07-29T18:49:09;25.50;99.90
3232;DHT22;1628;48.884;9.210;2022-07-29T18:51:36;25.50;99.90
3232;DHT22;1628;48.884;9.210;2022-07-29T18:54:04;25.50;99.90
3232;DHT22;1628;48.884;9.210;2022-07-29T18:56:33;25.50;99.90
3232;DHT22;1628;48.884;9.210;2022-07-29T18:59:00;25.40;99.90
3232;DHT22;1628;48.884;9.210;2022-07-29T19:01:27;25.40;99.90
3232;DHT22;1628;48.884;9.210;2022-07-29T19:03:54;25.30;99.90
3232;DHT22;1628;48.884;9.210;2022-07-29T19:06:20;25.30;99.90
3232;DHT22;1628;48.884;9.210;2022-07-29T19:08:47;25.20;99.90
3232;DHT22;1628;48.884;9.210;2022-07-29T19:11:15;25.10;99.90
3232;DHT22;1628;48.884;9.210;2022-07-29T19:13:42;25.10;99.90
3232;DHT22;1628;48.884;9.210;2022-07-29T19:16:09;25.00;99.90
3232;DHT22;1628;48.884;9.210;2022-07-29T19:18:38;25.00;99.90
3232;DHT22;1628;48.884;9.210;2022-07-29T19:21:05;24.90;99.90
3232;DHT22;1628;48.884;9.210;2022-07-29T19:23:31;24.90;99.90
3232;DHT22;1628;48.884;9.210;2022-07-29T19:25:58;24.90;99.90
3232;DHT22;1628;48.884;9.210;2022-07-29T19:28:26;24.90;99.90
3232;DHT22;1628;48.884;9.210;2022-07-29T19:30:53;24.80;99.90
3232;DHT22;1628;48.884;9.210;2022-07-29T19:33:20;24.80;99.90
3232;DHT22;1628;48.884;9.210;2022-07-29T19:35:46;24.80;99.90
3232;DHT22;1628;48.884;9.210;2022-07-29T19:38:13;24.80;99.90
3232;DHT22;1628;48.884;9.210;2022-07-29T19:40:41;24.70;99.90
3232;DHT22;1628;48.884;9.210;2022-07-29T19:43:07;24.70;99.90
3232;DHT22;1628;48.884;9.210;2022-07-29T19:45:36;24.60;99.90
3232;DHT22;1628;48.884;9.210;2022-07-29T19:48:03;24.50;99.90
3232;DHT22;1628;48.884;9.210;2022-07-29T19:50:30;24.40;99.90
3232;DHT22;1628;48.884;9.210;2022-07-29T19:52:58;24.20;99.90
3232;DHT22;1628;48.884;9.210;2022-07-29T19:55:25;24.20;99.90
3232;DHT22;1628;48.884;9.210;2022-07-29T19:57:52;24.10;99.90
3232;DHT22;1628;48.884;9.210;2022-07-29T20:00:19;24.10;99.90
3232;DHT22;1628;48.884;9.210;2022-07-29T20:02:49;24.00;99.90
3232;DHT22;1628;48.884;9.210;2022-07-29T20:05:16;24.00;99.90
3232;DHT22;1628;48.884;9.210;2022-07-29T20:07:43;24.00;99.90
3232;DHT22;1628;48.884;9.210;2022-07-29T20:10:11;23.90;99.90
3232;DHT22;1628;48.884;9.210;2022-07-29T20:12:38;23.80;99.90